Time;durP1;ratioP1;P1;durP2;ratioP2;P2;SDS_P1;SDS_P2;PMS_P1;PMS_P2;Temp;Humidity;BMP_temperature;BMP_pressure;BME280_temperature;BME280_humidity;BME280_pressure;Samples;Min_cycle;Max_cycle;Signal;HPM_P1;HPM_P2
2021/07/09 00:01:57;;;;;;;13.90;12.43;;;;;;;;;;5061380;28;20040;-71
2021/07/09 00:04:24;;;;;;;13.52;11.77;;;;;;;;;;5076213;28;20029;-70
2021/07/09 00:06:50;;;;;;;16.38;14.93;;;;;;;;;;5075869;28;20474;-70
2021/07/09 00:09:16;;;;;;;16.05;14.65;;;;;;;;;;5075205;28;20385;-72
2021/07/09 00:11:43;;;;;;;15.48;14.00;;;;;;;;;;5075624;28;20146;-71
2021/07/09 00:14:09;;;;;;;16.63;15.23;;;;;;;;;;5076190;28;20036;-71
2021/07/09 00:16:36;;;;;;;14.02;12.32;;;;;;;;;;5076010;28;20343;-70
2021/07/09 00:19:04;;;;;;;18.27;13.40;;;;;;;;;;5076020;28;20421;-70
2021/07/09 00:21:30;;;;;;;13.57;12.27;;;;;;;;;;5075441;28;20024;-71
2021/07/09 00:23:57;;;;;;;14.68;13.30;;;;;;;;;;5075606;28;20028;-71
2021/07/09 00:26:23;;;;;;;14.80;13.43;;;;;;;;;;5075417;28;20036;-71
2021/07/09 00:28:49;;;;;;;16.05;14.10;;;;;;;;;;5077005;28;20111;-70
2021/07/09 00:31:15;;;;;;;16.50;15.10;;;;;;;;;;5076641;28;20028;-71
2021/07/09 00:33:41;;;;;;;16.17;14.73;;;;;;;;;;5075834;28;20416;-71
2021/07/09 00:36:07;;;;;;;15.45;13.57;;;;;;;;;;5075610;28;20051;-71
2021/07/09 00:38:33;;;;;;;14.02;12.75;;;;;;;;;;5075492;28;20021;-71
2021/07/09 00:40:59;;;;;;;16.23;14.82;;;;;;;;;;5075061;28;20040;-70
2021/07/09 00:43:25;;;;;;;16.15;14.60;;;;;;;;;;5075106;28;20025;-71
2021/07/09 00:45:51;;;;;;;18.80;17.05;;;;;;;;;;5075868;28;20494;-71
2021/07/09 00:48:17;;;;;;;19.77;17.67;;;;;;;;;;5075624;28;20520;-71
2021/07/09 00:50:44;;;;;;;21.17;19.42;;;;;;;;;;5075291;28;20466;-71
2021/07/09 00:53:10;;;;;;;18.50;16.70;;;;;;;;;;5074821;28;20086;-70
2021/07/09 00:55:36;;;;;;;21.25;19.30;;;;;;;;;;5074505;28;20586;-71
2021/07/09 00:58:02;;;;;;;20.83;19.13;;;;;;;;;;5075242;28;20025;-71
2021/07/09 01:00:28;;;;;;;22.48;20.17;;;;;;;;;;5075049;28;20137;-71
2021/07/09 01:02:54;;;;;;;27.20;24.77;;;;;;;;;;5075254;28;20024;-70
2021/07/09 01:05:20;;;;;;;27.48;24.77;;;;;;;;;;5074698;28;20048;-71
2021/07/09 01:07:47;;;;;;;30.92;27.90;;;;;;;;;;5074677;28;20017;-72
2021/07/09 01:10:15;;;;;;;41.83;29.02;;;;;;;;;;5074395;28;20025;-71
2021/07/09 01:12:41;;;;;;;30.50;27.40;;;;;;;;;;5074829;28;20025;-69
2021/07/09 01:15:08;;;;;;;31.23;28.45;;;;;;;;;;5074713;28;20028;-70
2021/07/09 01:17:34;;;;;;;28.77;25.25;;;;;;;;;;5074588;28;20028;-71
2021/07/09 01:20:00;;;;;;;32.83;29.83;;;;;;;;;;5074810;28;20496;-71
2021/07/09 01:22:26;;;;;;;29.58;26.95;;;;;;;;;;5073650;28;20540;-71
2021/07/09 01:24:52;;;;;;;32.78;28.27;;;;;;;;;;5074358;28;20125;-71
2021/07/09 01:27:18;;;;;;;34.97;31.80;;;;;;;;;;5074208;28;20024;-71
2021/07/09 01:29:44;;;;;;;31.67;28.95;;;;;;;;;;5074304;28;20024;-71
2021/07/09 01:32:11;;;;;;;28.10;24.67;;;;;;;;;;5074364;28;20059;-71
2021/07/09 01:34:37;;;;;;;29.95;24.45;;;;;;;;;;5074470;28;20032;-71
2021/07/09 01:37:11;;;;;;;28.83;26.00;;;;;;;;;;5074240;28;20501;-71
2021/07/09 01:39:37;;;;;;;27.98;25.02;;;;;;;;;;5074214;28;20037;-70
2021/07/09 01:42:03;;;;;;;37.15;31.73;;;;;;;;;;5074802;28;20037;-71
2021/07/09 01:44:30;;;;;;;31.67;28.60;;;;;;;;;;5074338;28;20062;-70
2021/07/09 01:46:56;;;;;;;28.60;25.60;;;;;;;;;;5073837;28;20028;-70
2021/07/09 01:49:22;;;;;;;29.38;26.55;;;;;;;;;;5073959;28;20028;-71
2021/07/09 01:51:48;;;;;;;36.05;32.47;;;;;;;;;;5074047;28;20039;-71
2021/07/09 01:54:14;;;;;;;29.00;26.15;;;;;;;;;;5074251;28;20048;-71
2021/07/09 01:56:40;;;;;;;28.10;25.17;;;;;;;;;;5074134;28;20024;-71
2021/07/09 01:59:06;;;;;;;31.02;28.10;;;;;;;;;;5073885;28;20535;-71
2021/07/09 02:01:32;;;;;;;29.50;26.88;;;;;;;;;;5073405;28;20417;-71
2021/07/09 02:03:58;;;;;;;27.40;24.92;;;;;;;;;;5073959;28;20032;-71
2021/07/09 02:06:24;;;;;;;27.70;25.00;;;;;;;;;;5073627;28;20032;-71
2021/07/09 02:08:50;;;;;;;29.83;27.02;;;;;;;;;;5073367;28;20299;-71
2021/07/09 02:11:18;;;;;;;27.17;24.77;;;;;;;;;;5073558;28;20482;-72
2021/07/09 02:13:44;;;;;;;26.33;23.25;;;;;;;;;;5073780;28;20462;-70
2021/07/09 02:16:10;;;;;;;28.08;25.30;;;;;;;;;;5073463;28;20355;-71
2021/07/09 02:18:36;;;;;;;30.48;27.73;;;;;;;;;;5073541;28;20021;-71
2021/07/09 02:21:02;;;;;;;26.00;23.60;;;;;;;;;;5073285;28;20068;-71
2021/07/09 02:23:28;;;;;;;25.75;23.48;;;;;;;;;;5073495;28;20066;-70
2021/07/09 02:25:54;;;;;;;28.23;25.60;;;;;;;;;;5073603;28;20024;-71
2021/07/09 02:28:20;;;;;;;29.73;27.05;;;;;;;;;;5073503;28;20052;-71
2021/07/09 02:30:46;;;;;;;26.80;24.13;;;;;;;;;;5073622;28;20107;-71
2021/07/09 02:33:12;;;;;;;27.65;24.88;;;;;;;;;;5073663;28;20035;-71
2021/07/09 02:35:39;;;;;;;23.67;21.48;;;;;;;;;;5072921;28;20028;-71
2021/07/09 02:38:05;;;;;;;26.35;23.60;;;;;;;;;;5073056;28;20036;-71
2021/07/09 02:40:31;;;;;;;30.05;27.02;;;;;;;;;;5073845;28;20024;-71
2021/07/09 02:42:58;;;;;;;23.17;20.50;;;;;;;;;;5073595;28;20073;-71
2021/07/09 02:45:24;;;;;;;27.35;24.85;;;;;;;;;;5073231;28;20031;-71
2021/07/09 02:47:50;;;;;;;25.35;23.08;;;;;;;;;;5073447;28;20056;-71
2021/07/09 02:50:17;;;;;;;25.70;23.30;;;;;;;;;;5073432;28;20067;-71
2021/07/09 02:52:43;;;;;;;25.33;23.15;;;;;;;;;;5073253;28;20049;-71
2021/07/09 02:55:10;;;;;;;25.95;23.58;;;;;;;;;;5073515;28;20082;-71
2021/07/09 02:57:36;;;;;;;24.73;22.52;;;;;;;;;;5073252;28;20032;-71
2021/07/09 03:00:04;;;;;;;27.20;24.58;;;;;;;;;;5073649;28;20029;-71
2021/07/09 03:02:30;;;;;;;24.50;22.10;;;;;;;;;;5073263;28;20044;-71
2021/07/09 03:04:56;;;;;;;23.30;21.15;;;;;;;;;;5073138;28;20017;-71
2021/07/09 03:07:22;;;;;;;26.55;23.80;;;;;;;;;;5072771;28;20090;-71
2021/07/09 03:09:48;;;;;;;22.58;20.55;;;;;;;;;;5073351;28;20169;-71
2021/07/09 03:12:14;;;;;;;24.58;22.17;;;;;;;;;;5073120;28;20478;-71
2021/07/09 03:14:41;;;;;;;34.20;22.35;;;;;;;;;;5073163;28;20497;-71
2021/07/09 03:17:07;;;;;;;26.83;21.05;;;;;;;;;;5073295;28;20059;-71
2021/07/09 03:19:33;;;;;;;23.17;21.23;;;;;;;;;;5072847;28;20024;-71
2021/07/09 03:21:59;;;;;;;29.77;27.10;;;;;;;;;;5072597;28;20044;-71
2021/07/09 03:24:25;;;;;;;26.85;24.42;;;;;;;;;;5073400;28;20027;-71
2021/07/09 03:26:51;;;;;;;25.38;23.05;;;;;;;;;;5073097;28;20501;-71
2021/07/09 03:29:17;;;;;;;27.10;22.92;;;;;;;;;;5072834;28;20025;-71
2021/07/09 03:31:43;;;;;;;22.55;20.23;;;;;;;;;;5073027;28;20024;-71
2021/07/09 03:34:10;;;;;;;22.27;20.33;;;;;;;;;;5072751;28;20029;-71
2021/07/09 03:36:38;;;;;;;23.90;21.45;;;;;;;;;;5072407;28;20086;-71
2021/07/09 03:39:04;;;;;;;22.80;20.70;;;;;;;;;;5072571;28;20107;-71
2021/07/09 03:41:30;;;;;;;22.05;20.10;;;;;;;;;;5072426;28;20068;-71
2021/07/09 03:43:56;;;;;;;21.02;19.02;;;;;;;;;;5072840;28;20032;-71
2021/07/09 03:46:22;;;;;;;20.95;18.98;;;;;;;;;;5076365;28;20107;-71
2021/07/09 03:48:49;;;;;;;21.10;19.20;;;;;;;;;;5076130;28;20040;-71
2021/07/09 03:51:15;;;;;;;20.92;18.92;;;;;;;;;;5076275;28;20063;-70
2021/07/09 03:53:41;;;;;;;27.00;23.60;;;;;;;;;;5076185;28;20048;-70
2021/07/09 03:56:07;;;;;;;23.15;21.15;;;;;;;;;;5076287;28;20029;-71
2021/07/09 03:58:33;;;;;;;24.33;20.67;;;;;;;;;;5076299;28;20108;-70
2021/07/09 04:00:59;;;;;;;22.90;20.67;;;;;;;;;;5069369;28;20067;-71
2021/07/09 04:03:25;;;;;;;21.42;19.38;;;;;;;;;;5063674;28;20021;-70
2021/07/09 04:05:51;;;;;;;21.10;18.95;;;;;;;;;;5065327;28;20024;-71
2021/07/09 04:08:18;;;;;;;21.35;19.55;;;;;;;;;;5064980;28;20021;-70
2021/07/09 04:10:44;;;;;;;21.63;17.90;;;;;;;;;;5063732;28;20025;-70
2021/07/09 04:13:10;;;;;;;23.80;21.70;;;;;;;;;;5063825;28;20025;-70
2021/07/09 04:15:36;;;;;;;25.02;22.25;;;;;;;;;;5064055;28;20978;-71
2021/07/09 04:18:02;;;;;;;19.98;18.30;;;;;;;;;;5065003;28;20390;-72
2021/07/09 04:20:28;;;;;;;19.80;18.05;;;;;;;;;;5063101;28;20570;-71
2021/07/09 04:22:55;;;;;;;19.15;17.27;;;;;;;;;;5064777;28;20025;-69
2021/07/09 04:25:21;;;;;;;23.38;21.40;;;;;;;;;;5065139;28;20017;-70
2021/07/09 04:27:47;;;;;;;18.98;17.15;;;;;;;;;;5063314;28;20075;-71
2021/07/09 04:30:13;;;;;;;21.10;19.15;;;;;;;;;;5064545;28;20031;-70
2021/07/09 04:32:39;;;;;;;21.45;19.60;;;;;;;;;;5064777;28;20029;-71
2021/07/09 04:35:06;;;;;;;20.10;18.52;;;;;;;;;;5062993;28;20470;-72
2021/07/09 04:37:32;;;;;;;20.08;18.08;;;;;;;;;;5064630;28;20036;-72
2021/07/09 04:39:59;;;;;;;20.40;17.92;;;;;;;;;;5073769;28;20033;-72
2021/07/09 04:42:25;;;;;;;20.20;18.45;;;;;;;;;;5075360;28;20493;-72
2021/07/09 04:44:51;;;;;;;20.98;16.25;;;;;;;;;;5075433;28;20021;-71
2021/07/09 04:47:17;;;;;;;41.08;15.93;;;;;;;;;;5063112;28;20085;-72
2021/07/09 04:49:43;;;;;;;19.70;17.92;;;;;;;;;;5064605;28;20024;-71
2021/07/09 04:52:09;;;;;;;18.85;17.15;;;;;;;;;;5059524;28;20029;-70
2021/07/09 04:54:35;;;;;;;21.30;19.17;;;;;;;;;;5064845;28;20025;-70
2021/07/09 04:57:01;;;;;;;18.38;16.55;;;;;;;;;;5068222;28;20024;-72
2021/07/09 04:59:27;;;;;;;22.52;20.63;;;;;;;;;;5067580;28;20031;-71
2021/07/09 05:01:53;;;;;;;22.40;20.10;;;;;;;;;;5062748;28;20057;-72
2021/07/09 05:04:19;;;;;;;20.13;18.33;;;;;;;;;;5063415;28;20035;-72
2021/07/09 05:06:46;;;;;;;20.52;18.60;;;;;;;;;;5064514;28;20340;-71
2021/07/09 05:09:12;;;;;;;26.65;23.90;;;;;;;;;;5062456;28;20351;-72
2021/07/09 05:11:38;;;;;;;38.63;35.50;;;;;;;;;;5063354;28;20067;-71
2021/07/09 05:14:05;;;;;;;27.30;24.58;;;;;;;;;;5064265;28;20047;-71
2021/07/09 05:16:31;;;;;;;23.38;20.98;;;;;;;;;;5062061;28;20104;-72
2021/07/09 05:18:57;;;;;;;26.90;24.58;;;;;;;;;;5062764;28;20493;-72
2021/07/09 05:21:25;;;;;;;27.42;24.83;;;;;;;;;;5061946;28;20091;-73
2021/07/09 05:23:51;;;;;;;29.73;27.02;;;;;;;;;;5068408;28;20029;-72
2021/07/09 05:26:17;;;;;;;26.75;24.52;;;;;;;;;;5074250;28;20020;-71
2021/07/09 05:28:43;;;;;;;30.05;27.02;;;;;;;;;;5074240;28;20437;-71
2021/07/09 05:31:10;;;;;;;25.15;23.00;;;;;;;;;;5074610;28;20033;-71
2021/07/09 05:33:36;;;;;;;25.77;23.60;;;;;;;;;;5073915;28;20481;-71
2021/07/09 05:36:02;;;;;;;27.65;24.88;;;;;;;;;;5074473;28;20024;-71
2021/07/09 05:38:28;;;;;;;30.25;27.42;;;;;;;;;;5074242;28;20028;-71
2021/07/09 05:40:54;;;;;;;26.67;24.23;;;;;;;;;;5074593;28;20039;-71
2021/07/09 05:43:20;;;;;;;25.48;22.77;;;;;;;;;;5074082;28;20027;-71
2021/07/09 05:45:46;;;;;;;26.25;23.17;;;;;;;;;;5074381;28;20021;-71
2021/07/09 05:48:12;;;;;;;26.52;24.02;;;;;;;;;;5074055;28;20024;-71
2021/07/09 05:50:39;;;;;;;23.77;21.65;;;;;;;;;;5073902;28;20056;-71
2021/07/09 05:53:05;;;;;;;25.88;23.73;;;;;;;;;;5074145;28;20060;-71
2021/07/09 05:55:31;;;;;;;25.60;23.30;;;;;;;;;;5073705;28;20103;-72
2021/07/09 05:57:57;;;;;;;113.45;48.45;;;;;;;;;;5072903;28;20047;-71
2021/07/09 06:00:23;;;;;;;89.47;42.25;;;;;;;;;;5073678;28;20024;-71
2021/07/09 06:02:49;;;;;;;68.45;34.97;;;;;;;;;;5071781;28;20079;-72
2021/07/09 06:05:15;;;;;;;58.55;35.00;;;;;;;;;;5072469;28;20482;-72
2021/07/09 06:07:41;;;;;;;63.00;36.67;;;;;;;;;;5072333;28;20064;-71
2021/07/09 06:10:08;;;;;;;46.13;31.35;;;;;;;;;;5072570;28;20013;-71
2021/07/09 06:12:34;;;;;;;52.67;35.42;;;;;;;;;;5072671;28;20108;-71
2021/07/09 06:15:00;;;;;;;41.03;35.05;;;;;;;;;;5072336;28;20559;-72
2021/07/09 06:17:28;;;;;;;42.63;31.73;;;;;;;;;;5072641;28;20467;-71
2021/07/09 06:19:54;;;;;;;33.67;30.23;;;;;;;;;;5073743;28;20361;-71
2021/07/09 06:22:20;;;;;;;31.45;28.15;;;;;;;;;;5073641;28;20047;-72
2021/07/09 06:24:46;;;;;;;31.83;28.73;;;;;;;;;;5073639;28;20370;-71
2021/07/09 06:27:12;;;;;;;31.52;28.17;;;;;;;;;;5073421;28;20123;-72
2021/07/09 06:29:38;;;;;;;35.83;28.88;;;;;;;;;;5073319;28;20082;-71
2021/07/09 06:32:04;;;;;;;30.38;25.38;;;;;;;;;;5072390;28;20020;-72
2021/07/09 06:34:31;;;;;;;30.42;27.52;;;;;;;;;;5073495;28;20028;-71
2021/07/09 06:36:58;;;;;;;31.80;28.20;;;;;;;;;;5070361;28;20559;-72
2021/07/09 06:39:24;;;;;;;33.03;29.58;;;;;;;;;;5054647;28;20033;-71
2021/07/09 06:41:50;;;;;;;26.02;23.52;;;;;;;;;;5053835;28;20044;-71
2021/07/09 06:44:16;;;;;;;31.77;25.88;;;;;;;;;;5053610;28;20021;-69
2021/07/09 06:46:43;;;;;;;28.13;25.13;;;;;;;;;;5061072;28;20031;-72
2021/07/09 06:49:09;;;;;;;27.63;24.13;;;;;;;;;;5073511;28;20028;-71
2021/07/09 06:51:36;;;;;;;25.80;23.08;;;;;;;;;;5073205;28;20024;-72
2021/07/09 06:54:02;;;;;;;23.02;20.92;;;;;;;;;;5073643;28;20522;-71
2021/07/09 06:56:28;;;;;;;32.72;24.95;;;;;;;;;;5073345;28;20110;-71
2021/07/09 06:58:54;;;;;;;26.02;23.88;;;;;;;;;;5068373;28;20024;-71
2021/07/09 07:01:20;;;;;;;28.13;24.67;;;;;;;;;;5071540;28;20183;-71
2021/07/09 07:03:46;;;;;;;31.85;29.13;;;;;;;;;;5072234;28;20035;-72
2021/07/09 07:06:13;;;;;;;26.90;24.15;;;;;;;;;;5073829;28;20051;-73
2021/07/09 07:08:39;;;;;;;25.75;22.88;;;;;;;;;;5073508;28;20024;-72
2021/07/09 07:11:05;;;;;;;23.52;21.27;;;;;;;;;;5067949;28;20039;-71
2021/07/09 07:13:31;;;;;;;26.52;23.92;;;;;;;;;;5060332;28;20103;-72
2021/07/09 07:15:58;;;;;;;24.50;21.88;;;;;;;;;;5060497;28;20071;-71
2021/07/09 07:18:24;;;;;;;24.75;22.45;;;;;;;;;;5062862;28;20466;-71
2021/07/09 07:20:50;;;;;;;20.33;18.52;;;;;;;;;;5063457;28;20123;-72
2021/07/09 07:23:17;;;;;;;23.42;21.15;;;;;;;;;;5065899;28;20047;-73
2021/07/09 07:25:43;;;;;;;22.85;20.88;;;;;;;;;;5066384;28;20056;-72
2021/07/09 07:28:09;;;;;;;24.73;22.30;;;;;;;;;;5066440;28;20469;-72
2021/07/09 07:30:35;;;;;;;22.73;20.63;;;;;;;;;;5066511;28;20391;-71
2021/07/09 07:33:02;;;;;;;22.27;20.15;;;;;;;;;;5064858;28;20020;-72
2021/07/09 07:35:30;;;;;;;21.58;19.55;;;;;;;;;;5064000;28;20470;-72
2021/07/09 07:37:56;;;;;;;21.92;19.80;;;;;;;;;;5068102;28;20017;-73
2021/07/09 07:40:22;;;;;;;23.30;21.15;;;;;;;;;;5064997;28;20021;-72
2021/07/09 07:42:48;;;;;;;20.80;18.75;;;;;;;;;;5064424;28;20478;-72
2021/07/09 07:45:14;;;;;;;21.15;19.38;;;;;;;;;;5065088;28;20020;-72
2021/07/09 07:47:40;;;;;;;28.33;20.77;;;;;;;;;;5063093;28;20751;-71
2021/07/09 07:50:06;;;;;;;19.08;17.20;;;;;;;;;;5060366;28;20470;-71
2021/07/09 07:52:33;;;;;;;24.55;22.20;;;;;;;;;;5069293;28;20052;-72
2021/07/09 07:54:59;;;;;;;19.70;17.85;;;;;;;;;;5064369;28;20071;-71
2021/07/09 07:57:26;;;;;;;20.58;18.75;;;;;;;;;;5064632;28;20374;-71
2021/07/09 07:59:52;;;;;;;19.55;17.65;;;;;;;;;;5065380;28;20020;-72
2021/07/09 08:02:18;;;;;;;20.90;19.10;;;;;;;;;;5064188;28;20044;-71
2021/07/09 08:04:45;;;;;;;23.13;21.08;;;;;;;;;;5064905;28;20032;-72
2021/07/09 08:07:14;;;;;;;19.35;17.48;;;;;;;;;;5065789;28;20024;-72
2021/07/09 08:09:40;;;;;;;18.65;16.85;;;;;;;;;;5063818;28;20034;-73
2021/07/09 08:12:07;;;;;;;19.15;17.42;;;;;;;;;;5064011;28;20046;-72
2021/07/09 08:14:33;;;;;;;18.60;16.67;;;;;;;;;;5065383;28;20017;-72
2021/07/09 08:16:59;;;;;;;18.13;16.38;;;;;;;;;;5064689;28;20029;-73
2021/07/09 08:19:26;;;;;;;18.45;16.50;;;;;;;;;;5064751;28;20073;-73
2021/07/09 08:21:52;;;;;;;17.73;15.95;;;;;;;;;;5065614;28;20044;-72
2021/07/09 08:24:18;;;;;;;21.88;20.08;;;;;;;;;;5063731;28;20036;-71
2021/07/09 08:26:44;;;;;;;24.50;22.17;;;;;;;;;;5069625;28;20021;-72
2021/07/09 08:29:10;;;;;;;19.38;17.65;;;;;;;;;;5059765;28;20100;-72
2021/07/09 08:31:36;;;;;;;24.10;20.90;;;;;;;;;;5075039;28;20028;-71
2021/07/09 08:34:03;;;;;;;23.75;20.90;;;;;;;;;;5075298;28;20051;-72
2021/07/09 08:36:29;;;;;;;23.45;21.02;;;;;;;;;;5074567;28;20066;-72
2021/07/09 08:38:55;;;;;;;21.75;19.77;;;;;;;;;;5074283;28;20021;-71
2021/07/09 08:41:21;;;;;;;23.30;21.25;;;;;;;;;;5075378;28;20527;-71
2021/07/09 08:43:47;;;;;;;22.67;20.58;;;;;;;;;;5075430;28;20379;-71
2021/07/09 08:46:14;;;;;;;21.20;19.17;;;;;;;;;;5075370;28;20024;-71
2021/07/09 08:48:40;;;;;;;19.50;17.85;;;;;;;;;;5075539;28;20031;-71
2021/07/09 08:51:06;;;;;;;23.05;20.75;;;;;;;;;;5073374;28;20039;-72
2021/07/09 08:53:32;;;;;;;21.85;19.77;;;;;;;;;;5072846;28;20049;-72
2021/07/09 08:55:58;;;;;;;21.67;19.45;;;;;;;;;;5073077;28;20112;-72
2021/07/09 08:58:24;;;;;;;22.73;20.20;;;;;;;;;;5073141;28;20021;-72
2021/07/09 09:00:50;;;;;;;23.92;20.45;;;;;;;;;;5073227;28;20048;-72
2021/07/09 09:03:19;;;;;;;22.23;20.42;;;;;;;;;;5073730;28;20406;-73
2021/07/09 09:05:45;;;;;;;19.67;18.08;;;;;;;;;;5074795;28;20032;-71
2021/07/09 09:08:11;;;;;;;21.10;19.33;;;;;;;;;;5074753;28;20025;-71
2021/07/09 09:10:41;;;;;;;21.73;19.67;;;;;;;;;;5074796;28;20028;-71
2021/07/09 09:13:08;;;;;;;21.55;19.73;;;;;;;;;;5074547;28;20492;-71
2021/07/09 09:15:35;;;;;;;24.98;20.73;;;;;;;;;;5074522;28;20035;-71
2021/07/09 09:18:02;;;;;;;20.33;18.20;;;;;;;;;;5075332;28;20028;-71
2021/07/09 09:20:29;;;;;;;20.75;18.90;;;;;;;;;;5074459;28;20378;-71
2021/07/09 09:22:56;;;;;;;19.25;17.55;;;;;;;;;;5062015;28;20059;-72
2021/07/09 09:25:23;;;;;;;27.00;17.42;;;;;;;;;;5065416;28;20029;-71
2021/07/09 09:27:58;;;;;;;18.83;16.92;;;;;;;;;;5060666;28;20021;-72
2021/07/09 09:30:24;;;;;;;18.80;16.98;;;;;;;;;;5064667;28;20032;-72
2021/07/09 09:32:50;;;;;;;17.25;15.75;;;;;;;;;;5061836;28;20021;-72
2021/07/09 09:35:24;;;;;;;17.98;15.30;;;;;;;;;;5063498;28;20055;-75
2021/07/09 09:37:51;;;;;;;18.42;15.65;;;;;;;;;;5064017;28;20016;-72
2021/07/09 09:40:17;;;;;;;17.25;15.45;;;;;;;;;;5062370;28;20064;-72
2021/07/09 09:42:44;;;;;;;18.52;16.77;;;;;;;;;;5061939;28;20066;-72
2021/07/09 09:45:10;;;;;;;22.02;15.88;;;;;;;;;;5063850;28;20057;-72
2021/07/09 09:47:36;;;;;;;16.15;14.70;;;;;;;;;;5061929;28;20021;-72
2021/07/09 09:50:04;;;;;;;19.05;15.95;;;;;;;;;;5067675;28;20028;-71
2021/07/09 09:52:34;;;;;;;16.50;15.00;;;;;;;;;;5073930;28;20094;-71
2021/07/09 09:55:01;;;;;;;17.40;15.70;;;;;;;;;;5073716;28;20025;-72
2021/07/09 09:57:27;;;;;;;22.83;18.05;;;;;;;;;;5073861;28;20107;-72
2021/07/09 09:59:53;;;;;;;16.65;15.15;;;;;;;;;;5074034;28;20020;-72
2021/07/09 10:02:21;;;;;;;19.88;16.05;;;;;;;;;;5073796;28;20537;-72
2021/07/09 10:04:47;;;;;;;26.80;22.00;;;;;;;;;;5073596;28;20024;-72
2021/07/09 10:07:13;;;;;;;40.53;32.50;;;;;;;;;;5073648;28;20029;-71
2021/07/09 10:09:39;;;;;;;37.72;27.02;;;;;;;;;;5073244;28;20114;-71
2021/07/09 10:12:06;;;;;;;50.63;40.20;;;;;;;;;;5074196;28;20466;-71
2021/07/09 10:14:33;;;;;;;62.42;56.42;;;;;;;;;;5073794;28;20024;-71
2021/07/09 10:17:00;;;;;;;42.25;37.72;;;;;;;;;;5073528;28;20502;-71
2021/07/09 10:19:29;;;;;;;56.03;50.17;;;;;;;;;;5073415;28;20094;-71
2021/07/09 10:21:55;;;;;;;64.75;58.08;;;;;;;;;;5073274;28;20128;-72
2021/07/09 10:24:21;;;;;;;59.30;53.08;;;;;;;;;;5073571;28;20417;-71
2021/07/09 10:26:49;;;;;;;59.90;46.38;;;;;;;;;;5072164;28;20111;-73
2021/07/09 10:29:16;;;;;;;57.42;51.75;;;;;;;;;;5073106;28;20063;-71
2021/07/09 10:31:44;;;;;;;73.05;65.65;;;;;;;;;;5073009;28;20024;-72
2021/07/09 10:34:30;;;;;;;60.70;54.47;;;;;;;;;;5073344;28;20040;-72
2021/07/09 10:37:00;;;;;;;56.63;51.40;;;;;;;;;;5056167;28;20359;-73
2021/07/09 10:39:42;;;;;;;51.25;46.33;;;;;;;;;;5071982;28;20539;-71
2021/07/09 10:42:27;;;;;;;55.05;49.80;;;;;;;;;;5072063;28;20040;-72
2021/07/09 10:45:09;;;;;;;60.35;54.80;;;;;;;;;;5064352;28;20028;-72
2021/07/09 10:47:39;;;;;;;62.45;56.83;;;;;;;;;;5062080;28;20026;-71
2021/07/09 10:50:05;;;;;;;53.15;47.88;;;;;;;;;;5061764;28;20013;-72
2021/07/09 10:52:52;;;;;;;59.08;53.08;;;;;;;;;;5060292;28;20386;-71
2021/07/09 10:55:41;;;;;;;46.08;41.58;;;;;;;;;;5051710;28;20040;-72
2021/07/09 10:58:17;;;;;;;47.88;43.63;;;;;;;;;;5073717;28;20071;-71
2021/07/09 11:00:47;;;;;;;49.30;44.63;;;;;;;;;;5065123;28;20025;-74
2021/07/09 11:03:22;;;;;;;47.58;43.03;;;;;;;;;;5076708;28;20056;-72
2021/07/09 11:05:54;;;;;;;50.00;44.20;;;;;;;;;;5076621;28;20028;-72
2021/07/09 11:08:41;;;;;;;41.28;36.70;;;;;;;;;;5076626;28;20123;-71
2021/07/09 11:11:10;;;;;;;39.53;35.35;;;;;;;;;;5062520;28;20438;-71
2021/07/09 11:13:45;;;;;;;41.33;37.17;;;;;;;;;;5076631;28;20420;-71
2021/07/09 11:16:30;;;;;;;38.30;34.40;;;;;;;;;;5076937;28;20527;-71
2021/07/09 11:18:58;;;;;;;20.63;18.38;;;;;;;;;;5061948;28;20024;-70
2021/07/09 11:21:44;;;;;;;12.75;11.63;;;;;;;;;;5076392;28;20035;-73
2021/07/09 11:24:14;;;;;;;15.70;10.02;;;;;;;;;;5050233;28;20381;-73
2021/07/09 11:26:41;;;;;;;10.88;9.85;;;;;;;;;;5065964;28;20033;-73
2021/07/09 11:29:27;;;;;;;13.32;10.00;;;;;;;;;;5064896;28;20475;-72
2021/07/09 11:31:54;;;;;;;16.13;9.38;;;;;;;;;;5055070;28;20056;-74
2021/07/09 11:34:21;;;;;;;12.52;9.68;;;;;;;;;;5062322;28;20024;-72
2021/07/09 11:36:48;;;;;;;10.85;9.85;;;;;;;;;;5064694;28;20055;-71
2021/07/09 11:39:15;;;;;;;9.68;8.80;;;;;;;;;;5065591;28;20036;-73
2021/07/09 11:42:00;;;;;;;11.63;10.13;;;;;;;;;;5063542;28;20037;-72
2021/07/09 11:44:28;;;;;;;10.70;9.60;;;;;;;;;;5064725;28;20086;-73
2021/07/09 11:46:55;;;;;;;13.48;11.38;;;;;;;;;;5063679;28;20024;-72
2021/07/09 11:49:24;;;;;;;14.27;9.80;;;;;;;;;;5063620;28;20029;-73
2021/07/09 11:51:52;;;;;;;39.08;11.52;;;;;;;;;;5062385;28;20033;-71
2021/07/09 11:54:21;;;;;;;15.48;14.20;;;;;;;;;;5065058;28;20056;-74
2021/07/09 11:56:50;;;;;;;11.35;10.15;;;;;;;;;;5061933;28;20041;-72
2021/07/09 11:59:16;;;;;;;11.13;10.02;;;;;;;;;;5062846;28;20077;-72
2021/07/09 12:01:43;;;;;;;11.98;10.68;;;;;;;;;;5064324;28;20394;-72
2021/07/09 12:04:09;;;;;;;14.35;10.43;;;;;;;;;;5063010;28;20028;-72
2021/07/09 12:06:35;;;;;;;15.45;10.50;;;;;;;;;;5062499;28;20071;-72
2021/07/09 12:09:01;;;;;;;16.05;12.35;;;;;;;;;;5064117;28;20485;-72
2021/07/09 12:11:27;;;;;;;12.90;11.70;;;;;;;;;;5064848;28;20132;-70
2021/07/09 12:14:11;;;;;;;11.73;10.25;;;;;;;;;;5063038;28;20086;-70
2021/07/09 12:16:37;;;;;;;15.55;11.32;;;;;;;;;;5063510;28;20025;-71
2021/07/09 12:19:03;;;;;;;10.32;9.27;;;;;;;;;;5063671;28;20027;-70
2021/07/09 12:21:29;;;;;;;15.65;10.73;;;;;;;;;;5064645;28;20040;-72
2021/07/09 12:24:10;;;;;;;11.77;10.10;;;;;;;;;;5063513;28;20419;-71
2021/07/09 12:26:36;;;;;;;12.57;11.48;;;;;;;;;;5063392;28;20406;-71
2021/07/09 12:29:02;;;;;;;13.10;10.88;;;;;;;;;;5063346;28;20020;-71
2021/07/09 12:31:28;;;;;;;11.13;10.02;;;;;;;;;;5064679;28;20021;-71
2021/07/09 12:33:55;;;;;;;11.20;10.20;;;;;;;;;;5062995;28;20471;-71
2021/07/09 12:36:22;;;;;;;13.95;11.57;;;;;;;;;;5063784;28;20017;-71
2021/07/09 12:38:57;;;;;;;11.88;10.73;;;;;;;;;;5064561;28;20479;-71
2021/07/09 12:41:30;;;;;;;14.38;11.27;;;;;;;;;;5065890;28;20029;-72
2021/07/09 12:43:56;;;;;;;10.68;9.65;;;;;;;;;;5063800;28;20040;-71
2021/07/09 12:46:24;;;;;;;10.63;9.50;;;;;;;;;;5073458;28;20052;-71
2021/07/09 12:48:58;;;;;;;12.73;11.52;;;;;;;;;;5075227;28;20028;-71
2021/07/09 12:51:25;;;;;;;14.95;11.90;;;;;;;;;;5074753;28;20028;-72
2021/07/09 12:53:54;;;;;;;11.43;10.10;;;;;;;;;;5074768;28;20102;-71
2021/07/09 12:56:20;;;;;;;13.70;9.82;;;;;;;;;;5074698;28;20386;-71
2021/07/09 12:58:47;;;;;;;14.90;10.77;;;;;;;;;;5073715;28;20024;-72
2021/07/09 13:01:14;;;;;;;10.00;9.15;;;;;;;;;;5070839;28;20110;-75
2021/07/09 13:03:42;;;;;;;12.90;11.60;;;;;;;;;;5056595;28;20037;-72
2021/07/09 13:06:09;;;;;;;15.00;10.68;;;;;;;;;;5054621;28;20374;-72
2021/07/09 13:08:36;;;;;;;10.88;9.77;;;;;;;;;;5054397;28;20459;-73
2021/07/09 13:11:06;;;;;;;11.23;8.68;;;;;;;;;;5054765;28;20033;-73
2021/07/09 13:13:36;;;;;;;10.88;8.40;;;;;;;;;;5054121;28;20525;-73
2021/07/09 13:16:04;;;;;;;9.18;8.05;;;;;;;;;;5054286;28;20025;-72
2021/07/09 13:18:30;;;;;;;9.88;8.65;;;;;;;;;;5053883;28;20033;-72
2021/07/09 13:20:58;;;;;;;8.95;8.15;;;;;;;;;;5054326;28;20025;-74
2021/07/09 13:23:24;;;;;;;13.27;9.20;;;;;;;;;;5053958;28;20025;-73
2021/07/09 13:26:10;;;;;;;9.60;8.68;;;;;;;;;;5054561;28;20029;-73
2021/07/09 13:28:45;;;;;;;8.63;7.40;;;;;;;;;;5039126;28;20375;-73
2021/07/09 13:31:11;;;;;;;10.10;9.23;;;;;;;;;;5054435;28;20028;-72
2021/07/09 13:33:37;;;;;;;8.82;8.02;;;;;;;;;;5053688;28;20037;-72
2021/07/09 13:36:03;;;;;;;10.23;8.55;;;;;;;;;;5054201;28;20025;-73
2021/07/09 13:38:29;;;;;;;16.98;10.18;;;;;;;;;;5053728;28;20036;-74
2021/07/09 13:40:56;;;;;;;17.85;9.20;;;;;;;;;;5052640;28;20439;-74
2021/07/09 13:43:22;;;;;;;10.40;7.88;;;;;;;;;;5052849;28;20025;-73
2021/07/09 13:45:48;;;;;;;9.52;8.57;;;;;;;;;;5054490;28;20029;-71
2021/07/09 13:48:14;;;;;;;10.15;9.20;;;;;;;;;;5054249;28;20025;-73
2021/07/09 13:50:40;;;;;;;12.77;9.10;;;;;;;;;;5053419;28;20067;-73
2021/07/09 13:53:07;;;;;;;24.45;9.05;;;;;;;;;;5065186;28;20078;-74
2021/07/09 13:55:33;;;;;;;9.60;8.80;;;;;;;;;;5074537;28;20025;-76
2021/07/09 13:57:59;;;;;;;11.00;8.25;;;;;;;;;;5073687;28;20049;-74
2021/07/09 14:00:25;;;;;;;11.55;8.98;;;;;;;;;;5073923;28;20382;-74
2021/07/09 14:02:51;;;;;;;8.57;7.47;;;;;;;;;;5073503;28;20465;-74
2021/07/09 14:05:17;;;;;;;12.23;9.32;;;;;;;;;;5072876;28;20024;-74
2021/07/09 14:07:43;;;;;;;10.60;8.93;;;;;;;;;;5073601;28;20028;-73
2021/07/09 14:10:11;;;;;;;9.38;8.35;;;;;;;;;;5073210;28;20474;-73
2021/07/09 14:12:38;;;;;;;9.20;8.40;;;;;;;;;;5073486;28;20075;-75
2021/07/09 14:15:04;;;;;;;11.75;9.38;;;;;;;;;;5073595;28;20025;-73
2021/07/09 14:17:30;;;;;;;13.02;9.57;;;;;;;;;;5056060;28;20103;-73
2021/07/09 14:19:56;;;;;;;10.32;9.43;;;;;;;;;;5053619;28;20029;-72